Time;durP1;ratioP1;P1;durP2;ratioP2;P2;SDS_P1;SDS_P2;PMS_P1;PMS_P2;Temp;Humidity;BMP_temperature;BMP_pressure;BME280_temperature;BME280_humidity;BME280_pressure;Samples;Min_cycle;Max_cycle;Signal;HPM_P1;HPM_P2
2022/07/11 00:02:06;;;;;;;1.90;1.58;;;;;;;;;;5033884;28;20096;-80
2022/07/11 00:04:33;;;;;;;2.20;1.80;;;;;;;;;;5033719;28;20377;-78
2022/07/11 00:07:00;;;;;;;2.17;1.80;;;;;;;;;;5033652;28;20036;-80
2022/07/11 00:09:26;;;;;;;2.03;1.80;;;;;;;;;;5015768;28;20044;-79
2022/07/11 00:11:52;;;;;;;3.15;1.60;;;;;;;;;;5033661;28;20088;-78
2022/07/11 00:14:19;;;;;;;2.60;1.88;;;;;;;;;;5033585;28;20029;-79
2022/07/11 00:16:45;;;;;;;3.05;2.00;;;;;;;;;;5033720;28;20022;-80
2022/07/11 00:19:11;;;;;;;2.17;1.90;;;;;;;;;;5033359;28;20021;-80
2022/07/11 00:21:38;;;;;;;2.25;1.88;;;;;;;;;;5033185;28;20061;-80
2022/07/11 00:24:09;;;;;;;1.83;1.73;;;;;;;;;;5033424;28;20084;-79
2022/07/11 00:26:36;;;;;;;2.80;1.73;;;;;;;;;;5033114;28;20030;-79
2022/07/11 00:29:02;;;;;;;2.58;1.83;;;;;;;;;;5033279;28;20025;-79
2022/07/11 00:31:28;;;;;;;3.75;2.00;;;;;;;;;;5033146;28;20025;-79
2022/07/11 00:33:55;;;;;;;2.53;1.90;;;;;;;;;;5033460;28;20112;-80
2022/07/11 00:36:21;;;;;;;3.53;2.10;;;;;;;;;;5033095;28;20072;-80
2022/07/11 00:38:47;;;;;;;2.78;1.90;;;;;;;;;;5033253;28;20029;-79
2022/07/11 00:41:14;;;;;;;2.53;1.88;;;;;;;;;;5033072;28;20033;-79
2022/07/11 00:43:40;;;;;;;2.55;1.67;;;;;;;;;;5015238;28;20133;-79
2022/07/11 00:46:08;;;;;;;2.78;1.75;;;;;;;;;;5032961;28;20029;-80
2022/07/11 00:48:35;;;;;;;2.08;1.70;;;;;;;;;;5032900;28;20480;-80
2022/07/11 00:51:03;;;;;;;2.45;1.90;;;;;;;;;;5015193;28;20129;-80
2022/07/11 00:53:30;;;;;;;2.40;1.80;;;;;;;;;;5032931;28;20028;-80
2022/07/11 00:55:56;;;;;;;1.60;1.42;;;;;;;;;;5032893;28;20460;-80
2022/07/11 00:58:23;;;;;;;25.67;20.60;;;;;;;;;;5032673;28;20068;-80
2022/07/11 01:00:49;;;;;;;4.97;3.53;;;;;;;;;;5015120;28;20021;-79
2022/07/11 01:03:15;;;;;;;5.70;1.85;;;;;;;;;;5032818;28;20108;-80
2022/07/11 01:05:42;;;;;;;1.40;1.10;;;;;;;;;;5014913;28;20030;-79
2022/07/11 01:08:08;;;;;;;2.72;1.50;;;;;;;;;;5032596;28;20038;-80
2022/07/11 01:10:34;;;;;;;1.85;1.40;;;;;;;;;;5014889;28;20026;-79
2022/07/11 01:13:00;;;;;;;1.20;1.10;;;;;;;;;;5032808;28;20040;-79
2022/07/11 01:15:26;;;;;;;1.52;1.10;;;;;;;;;;5032570;28;20025;-80
2022/07/11 01:17:52;;;;;;;2.03;1.20;;;;;;;;;;5014705;28;20115;-79
2022/07/11 01:20:19;;;;;;;1.63;1.10;;;;;;;;;;5032321;28;20049;-80
2022/07/11 01:25:34;;;;;;;1.17;0.98;;;;;;;;;;5032609;28;20045;-80
2022/07/11 01:28:02;;;;;;;2.38;1.20;;;;;;;;;;5032514;28;20033;-80
2022/07/11 01:30:29;;;;;;;1.80;1.33;;;;;;;;;;5032197;28;20108;-80
2022/07/11 01:32:55;;;;;;;1.85;1.20;;;;;;;;;;5014729;28;20036;-79
2022/07/11 01:35:21;;;;;;;1.40;1.10;;;;;;;;;;5031950;28;20030;-80
2022/07/11 01:37:48;;;;;;;1.70;1.02;;;;;;;;;;5032290;28;20025;-81
2022/07/11 01:40:14;;;;;;;2.42;0.80;;;;;;;;;;5032132;28;20033;-80
2022/07/11 01:42:40;;;;;;;2.83;1.33;;;;;;;;;;5032216;28;20465;-80
2022/07/11 01:45:07;;;;;;;2.28;0.90;;;;;;;;;;5032216;28;20026;-80
2022/07/11 01:47:33;;;;;;;2.22;1.20;;;;;;;;;;5031791;28;20044;-80
2022/07/11 01:49:59;;;;;;;1.45;1.00;;;;;;;;;;5032134;28;20025;-79
2022/07/11 01:52:26;;;;;;;2.40;1.45;;;;;;;;;;5014241;28;20033;-79
2022/07/11 01:54:52;;;;;;;1.75;1.00;;;;;;;;;;5032148;28;20117;-79
2022/07/11 01:57:18;;;;;;;2.17;1.17;;;;;;;;;;5014159;28;20025;-79
2022/07/11 01:59:44;;;;;;;1.08;0.90;;;;;;;;;;5032303;28;20113;-79
2022/07/11 02:02:11;;;;;;;2.92;1.00;;;;;;;;;;5032068;28;20072;-80
2022/07/11 02:04:37;;;;;;;4.22;1.30;;;;;;;;;;5031845;28;20026;-81
2022/07/11 02:07:03;;;;;;;3.35;1.45;;;;;;;;;;5032184;28;20052;-79
2022/07/11 02:09:32;;;;;;;1.63;1.13;;;;;;;;;;5034297;28;20080;-81
2022/07/11 02:11:58;;;;;;;2.00;1.00;;;;;;;;;;5036312;28;20033;-80
2022/07/11 02:14:24;;;;;;;1.48;1.05;;;;;;;;;;5035882;28;20032;-80
2022/07/11 02:16:52;;;;;;;1.30;1.15;;;;;;;;;;5035855;28;20079;-80
2022/07/11 02:19:21;;;;;;;1.92;1.20;;;;;;;;;;5035747;28;20021;-79
2022/07/11 02:21:47;;;;;;;2.13;1.23;;;;;;;;;;5035558;28;20053;-80
2022/07/11 02:24:13;;;;;;;1.98;1.13;;;;;;;;;;5035703;28;20048;-80
2022/07/11 02:26:39;;;;;;;2.25;0.93;;;;;;;;;;5035433;28;20040;-80
2022/07/11 02:29:06;;;;;;;2.70;1.13;;;;;;;;;;5017912;28;20025;-80
2022/07/11 02:31:37;;;;;;;1.73;1.20;;;;;;;;;;5035153;28;20029;-80
2022/07/11 02:34:04;;;;;;;2.45;1.42;;;;;;;;;;5035715;28;20029;-80
2022/07/11 02:36:36;;;;;;;1.73;1.20;;;;;;;;;;5035254;28;20032;-80
2022/07/11 02:39:02;;;;;;;2.55;1.30;;;;;;;;;;5035511;28;20083;-79
2022/07/11 02:41:29;;;;;;;1.80;1.20;;;;;;;;;;5035192;28;20033;-81
2022/07/11 02:43:55;;;;;;;2.35;1.20;;;;;;;;;;5017737;28;20369;-79
2022/07/11 02:46:22;;;;;;;1.60;1.50;;;;;;;;;;5035243;28;20037;-80
2022/07/11 02:48:48;;;;;;;1.70;1.33;;;;;;;;;;5035430;28;20108;-80
2022/07/11 02:51:14;;;;;;;1.52;1.42;;;;;;;;;;5035330;28;20029;-80
2022/07/11 02:53:40;;;;;;;2.60;1.40;;;;;;;;;;5034989;28;20033;-80
2022/07/11 02:56:06;;;;;;;3.88;1.35;;;;;;;;;;5035232;28;20021;-80
2022/07/11 02:58:32;;;;;;;4.47;1.20;;;;;;;;;;5034693;28;20029;-80
2022/07/11 03:00:58;;;;;;;4.88;1.90;;;;;;;;;;5035329;28;20040;-80
2022/07/11 03:03:25;;;;;;;2.63;1.73;;;;;;;;;;5034930;28;20472;-81
2022/07/11 03:05:51;;;;;;;2.10;1.30;;;;;;;;;;5034900;28;20029;-79
2022/07/11 03:08:17;;;;;;;3.42;1.45;;;;;;;;;;5034960;28;20037;-80
2022/07/11 03:10:43;;;;;;;1.20;1.00;;;;;;;;;;5034631;28;20376;-79
2022/07/11 03:13:09;;;;;;;2.50;1.48;;;;;;;;;;5017005;28;20033;-80
2022/07/11 03:15:35;;;;;;;2.30;1.70;;;;;;;;;;5034633;28;20026;-80
2022/07/11 03:18:01;;;;;;;7.22;5.07;;;;;;;;;;5034747;28;20465;-79
2022/07/11 03:20:27;;;;;;;25.42;15.00;;;;;;;;;;5034301;28;20107;-80
2022/07/11 03:22:53;;;;;;;1.23;1.05;;;;;;;;;;5034616;28;20061;-81
2022/07/11 03:25:19;;;;;;;2.08;0.90;;;;;;;;;;5034660;28;20029;-80
2022/07/11 03:27:45;;;;;;;2.22;1.25;;;;;;;;;;5034237;28;20116;-80
2022/07/11 03:30:14;;;;;;;2.20;0.95;;;;;;;;;;5034557;28;20021;-80
2022/07/11 03:32:40;;;;;;;2.65;1.20;;;;;;;;;;5034312;28;20028;-79
2022/07/11 03:37:51;;;;;;;3.63;1.50;;;;;;;;;;5034578;28;20492;-79
2022/07/11 03:40:17;;;;;;;5.22;4.55;;;;;;;;;;5016625;28;20033;-80
2022/07/11 03:42:44;;;;;;;3.00;1.55;;;;;;;;;;5034234;28;20026;-80
2022/07/11 03:45:11;;;;;;;1.20;1.10;;;;;;;;;;5016213;28;20083;-81
2022/07/11 03:47:37;;;;;;;1.40;1.23;;;;;;;;;;5033936;28;20067;-80
2022/07/11 03:50:03;;;;;;;1.70;1.25;;;;;;;;;;5016413;28;20473;-80
2022/07/11 03:52:29;;;;;;;1.63;1.02;;;;;;;;;;5033796;28;20060;-79
2022/07/11 03:54:55;;;;;;;1.73;1.30;;;;;;;;;;5016313;28;20091;-79
2022/07/11 03:57:21;;;;;;;2.90;1.20;;;;;;;;;;5033974;28;20025;-77
2022/07/11 03:59:47;;;;;;;2.67;1.33;;;;;;;;;;5033937;28;20034;-80
2022/07/11 04:02:14;;;;;;;2.55;1.20;;;;;;;;;;5034031;28;20548;-81
2022/07/11 04:04:40;;;;;;;2.03;1.30;;;;;;;;;;5033661;28;20104;-80
2022/07/11 04:07:06;;;;;;;3.22;1.30;;;;;;;;;;5033755;28;20044;-79
2022/07/11 04:09:32;;;;;;;3.72;1.30;;;;;;;;;;5015985;28;20488;-80
2022/07/11 04:11:58;;;;;;;3.00;1.05;;;;;;;;;;5033833;28;20060;-78
2022/07/11 04:14:24;;;;;;;5.07;1.73;;;;;;;;;;5033681;28;20542;-79
2022/07/11 04:16:51;;;;;;;2.78;1.08;;;;;;;;;;5033383;28;20392;-78
2022/07/11 04:19:17;;;;;;;2.58;1.40;;;;;;;;;;5033557;28;20057;-79
2022/07/11 04:21:43;;;;;;;4.38;2.35;;;;;;;;;;5033072;28;20501;-78
2022/07/11 04:24:10;;;;;;;1.65;0.93;;;;;;;;;;5033550;28;20053;-78
2022/07/11 04:26:36;;;;;;;2.55;1.33;;;;;;;;;;5033233;28;20095;-79
2022/07/11 04:29:02;;;;;;;2.47;1.40;;;;;;;;;;5033514;28;20393;-80
2022/07/11 04:31:28;;;;;;;1.98;1.13;;;;;;;;;;5032760;28;20108;-78
2022/07/11 04:33:54;;;;;;;2.35;1.50;;;;;;;;;;5015308;28;20033;-81
2022/07/11 04:36:20;;;;;;;4.97;1.67;;;;;;;;;;5032843;28;20381;-78
2022/07/11 04:38:46;;;;;;;2.08;1.23;;;;;;;;;;5032918;28;20118;-78
2022/07/11 04:41:12;;;;;;;3.38;1.55;;;;;;;;;;5033178;28;20068;-78
2022/07/11 04:43:38;;;;;;;3.47;1.38;;;;;;;;;;5032901;28;20025;-79
2022/07/11 04:46:05;;;;;;;3.00;1.15;;;;;;;;;;5033069;28;20097;-82
2022/07/11 04:48:31;;;;;;;2.15;1.20;;;;;;;;;;5032956;28;20025;-78
2022/07/11 04:50:57;;;;;;;3.00;1.30;;;;;;;;;;5032799;28;20029;-79
2022/07/11 04:53:24;;;;;;;2.22;0.90;;;;;;;;;;5032873;28;20072;-79
2022/07/11 04:55:50;;;;;;;1.67;1.20;;;;;;;;;;5022687;28;20030;-78
2022/07/11 04:58:22;;;;;;;1.75;0.90;;;;;;;;;;5030113;28;20030;-78
2022/07/11 05:00:48;;;;;;;3.60;1.33;;;;;;;;;;5032635;28;20057;-79
2022/07/11 05:03:15;;;;;;;3.70;1.15;;;;;;;;;;5032780;28;20108;-76
2022/07/11 05:05:41;;;;;;;2.15;1.08;;;;;;;;;;5032447;28;20546;-77
2022/07/11 05:08:07;;;;;;;1.95;1.27;;;;;;;;;;5032170;28;20042;-80
2022/07/11 05:10:36;;;;;;;1.95;1.60;;;;;;;;;;5032504;28;20032;-79
2022/07/11 05:13:02;;;;;;;8.43;1.83;;;;;;;;;;5032284;28;20025;-78
2022/07/11 05:15:28;;;;;;;1.88;1.30;;;;;;;;;;5032350;28;20037;-80
2022/07/11 05:17:54;;;;;;;1.65;1.00;;;;;;;;;;5032132;28;20405;-79
2022/07/11 05:20:20;;;;;;;2.40;1.10;;;;;;;;;;5032019;28;20088;-79
2022/07/11 05:22:50;;;;;;;1.70;1.05;;;;;;;;;;5031957;28;20034;-79
2022/07/11 05:25:16;;;;;;;2.75;1.85;;;;;;;;;;5013336;28;20409;-77
2022/07/11 05:27:42;;;;;;;2.05;1.42;;;;;;;;;;5016213;28;20029;-78
2022/07/11 05:30:09;;;;;;;2.10;1.02;;;;;;;;;;5029115;28;20045;-78
2022/07/11 05:32:35;;;;;;;2.13;1.48;;;;;;;;;;5017470;28;20029;-79
2022/07/11 05:35:04;;;;;;;2.55;1.50;;;;;;;;;;5015644;28;20033;-78
2022/07/11 05:37:30;;;;;;;1.88;1.00;;;;;;;;;;5013583;28;20044;-79
2022/07/11 05:39:56;;;;;;;1.85;1.10;;;;;;;;;;5028766;28;20025;-78
2022/07/11 05:42:22;;;;;;;2.55;1.30;;;;;;;;;;5026134;28;20045;-79
2022/07/11 05:44:49;;;;;;;2.53;0.85;;;;;;;;;;5018430;28;20038;-84
2022/07/11 05:47:19;;;;;;;2.78;0.90;;;;;;;;;;5011314;28;20136;-81
2022/07/11 05:49:45;;;;;;;2.03;1.27;;;;;;;;;;5016473;28;20084;-79
2022/07/11 05:52:11;;;;;;;2.58;1.13;;;;;;;;;;5020984;28;20119;-80
2022/07/11 05:54:39;;;;;;;2.10;0.98;;;;;;;;;;5018639;28;20508;-81
2022/07/11 05:57:06;;;;;;;0.88;0.65;;;;;;;;;;5017242;28;20087;-78
2022/07/11 05:59:32;;;;;;;2.15;0.98;;;;;;;;;;5030680;28;20246;-80
2022/07/11 06:01:58;;;;;;;2.63;1.42;;;;;;;;;;5030102;28;20526;-78
2022/07/11 06:04:24;;;;;;;2.10;0.80;;;;;;;;;;5029428;28;20029;-78
2022/07/11 06:06:50;;;;;;;1.75;0.88;;;;;;;;;;5030222;28;20044;-77
2022/07/11 06:09:16;;;;;;;3.75;1.45;;;;;;;;;;5030804;28;20036;-81
2022/07/11 06:11:42;;;;;;;2.20;1.17;;;;;;;;;;5030416;28;20037;-79
2022/07/11 06:14:09;;;;;;;1.88;1.20;;;;;;;;;;5028036;28;20037;-81
2022/07/11 06:16:35;;;;;;;1.88;1.20;;;;;;;;;;5010718;28;20465;-83
2022/07/11 06:19:02;;;;;;;1.75;0.93;;;;;;;;;;5010744;28;20040;-78
2022/07/11 06:21:28;;;;;;;1.48;0.65;;;;;;;;;;5010871;28;20086;-79
2022/07/11 06:23:54;;;;;;;2.28;0.60;;;;;;;;;;5010392;28;20830;-79
2022/07/11 06:26:21;;;;;;;1.98;0.70;;;;;;;;;;5030642;28;20468;-79
2022/07/11 06:28:51;;;;;;;3.38;1.10;;;;;;;;;;5027630;28;20599;-82
2022/07/11 06:31:18;;;;;;;2.33;0.80;;;;;;;;;;5030413;28;20496;-78
2022/07/11 06:33:44;;;;;;;1.42;0.90;;;;;;;;;;5029718;28;20108;-77
2022/07/11 06:36:10;;;;;;;1.40;0.93;;;;;;;;;;5011053;28;20117;-80
2022/07/11 06:38:36;;;;;;;2.55;1.08;;;;;;;;;;5010155;28;20034;-79
2022/07/11 06:41:02;;;;;;;0.82;0.50;;;;;;;;;;5010497;28;20053;-82
2022/07/11 06:43:29;;;;;;;4.03;1.38;;;;;;;;;;5010701;28;20104;-78
2022/07/11 06:45:56;;;;;;;2.03;0.70;;;;;;;;;;5026466;28;20021;-78
2022/07/11 06:48:22;;;;;;;3.65;0.60;;;;;;;;;;5030178;28;20041;-78
2022/07/11 06:50:48;;;;;;;1.50;0.50;;;;;;;;;;5029784;28;20784;-80
2022/07/11 06:53:14;;;;;;;3.10;0.98;;;;;;;;;;5018178;28;20100;-80
2022/07/11 06:55:40;;;;;;;1.92;0.90;;;;;;;;;;5032911;28;20448;-79
2022/07/11 06:58:07;;;;;;;3.05;1.02;;;;;;;;;;5033634;28;20033;-80
2022/07/11 07:00:33;;;;;;;7.07;3.10;;;;;;;;;;5032746;28;20108;-78
2022/07/11 07:02:59;;;;;;;2.28;0.88;;;;;;;;;;5027953;28;20129;-79
2022/07/11 07:05:35;;;;;;;2.17;0.50;;;;;;;;;;5022405;28;20487;-78
2022/07/11 07:08:01;;;;;;;2.15;0.57;;;;;;;;;;5020662;28;20073;-77
2022/07/11 07:10:27;;;;;;;1.52;0.80;;;;;;;;;;5023013;28;20042;-78
2022/07/11 07:12:53;;;;;;;1.95;0.40;;;;;;;;;;5022808;28;20095;-80
2022/07/11 07:15:19;;;;;;;0.98;0.43;;;;;;;;;;5022500;28;20076;-78
2022/07/11 07:17:45;;;;;;;1.83;0.63;;;;;;;;;;5014699;28;20101;-76
2022/07/11 07:20:12;;;;;;;2.25;0.47;;;;;;;;;;5013338;28;20456;-82
2022/07/11 07:22:39;;;;;;;3.42;0.65;;;;;;;;;;5026571;28;20033;-77
2022/07/11 07:25:06;;;;;;;1.45;0.65;;;;;;;;;;5033650;28;20029;-79
2022/07/11 07:27:32;;;;;;;1.70;0.70;;;;;;;;;;5033053;28;20037;-78
2022/07/11 07:29:58;;;;;;;2.25;0.50;;;;;;;;;;5033003;28;20448;-77
2022/07/11 07:32:24;;;;;;;1.80;0.60;;;;;;;;;;5022890;28;20034;-77
2022/07/11 07:34:50;;;;;;;2.38;0.60;;;;;;;;;;4996595;28;20042;-77
2022/07/11 07:37:19;;;;;;;3.05;0.63;;;;;;;;;;5014551;28;20037;-82
2022/07/11 07:39:46;;;;;;;2.50;0.65;;;;;;;;;;5020178;28;20033;-81
2022/07/11 07:42:12;;;;;;;1.40;0.80;;;;;;;;;;4995455;28;20076;-81
2022/07/11 07:44:38;;;;;;;2.20;0.60;;;;;;;;;;5017350;28;20033;-80
2022/07/11 07:47:04;;;;;;;3.03;0.55;;;;;;;;;;5032619;28;20037;-80
2022/07/11 07:49:30;;;;;;;2.88;0.75;;;;;;;;;;5031336;28;20136;-79
2022/07/11 07:51:56;;;;;;;1.52;0.70;;;;;;;;;;5027524;28;20119;-79
2022/07/11 07:54:22;;;;;;;1.73;1.02;;;;;;;;;;5019584;28;20026;-79
2022/07/11 07:56:49;;;;;;;3.88;1.20;;;;;;;;;;5025634;28;20032;-78
2022/07/11 07:59:15;;;;;;;1.38;0.50;;;;;;;;;;5015164;28;20030;-80
2022/07/11 08:01:45;;;;;;;77.85;36.05;;;;;;;;;;4995253;28;20449;-79
2022/07/11 08:04:11;;;;;;;60.42;25.70;;;;;;;;;;5012913;28;20025;-78
2022/07/11 08:06:39;;;;;;;40.90;18.60;;;;;;;;;;5023092;28;20670;-83
2022/07/11 08:09:06;;;;;;;3.95;1.50;;;;;;;;;;5026063;28;20036;-83
2022/07/11 08:11:34;;;;;;;2.47;0.52;;;;;;;;;;5000315;28;20397;-83
2022/07/11 08:14:00;;;;;;;3.25;0.90;;;;;;;;;;5000458;28;20029;-79
2022/07/11 08:16:30;;;;;;;2.42;0.88;;;;;;;;;;5031546;28;20178;-79
2022/07/11 08:18:57;;;;;;;1.33;0.80;;;;;;;;;;5032090;28;20124;-79
2022/07/11 08:21:23;;;;;;;2.33;0.50;;;;;;;;;;5017325;28;20057;-81
2022/07/11 08:23:49;;;;;;;2.85;1.65;;;;;;;;;;5021526;28;20049;-78
2022/07/11 08:26:15;;;;;;;10.68;5.05;;;;;;;;;;5031597;28;20075;-78
2022/07/11 08:28:41;;;;;;;7.15;3.28;;;;;;;;;;5032358;28;20021;-76
2022/07/11 08:31:08;;;;;;;32.55;13.38;;;;;;;;;;5031489;28;20100;-76
2022/07/11 08:33:34;;;;;;;46.15;19.45;;;;;;;;;;5017729;28;20018;-78
2022/07/11 08:36:00;;;;;;;28.80;11.68;;;;;;;;;;5012954;28;20058;-81
2022/07/11 08:38:26;;;;;;;28.85;10.82;;;;;;;;;;5012648;28;20484;-78
2022/07/11 08:40:52;;;;;;;21.83;9.65;;;;;;;;;;5015941;28;20070;-79
2022/07/11 08:43:23;;;;;;;2.80;0.50;;;;;;;;;;5011779;28;20029;-78
2022/07/11 08:45:49;;;;;;;2.50;0.80;;;;;;;;;;5011822;28;20030;-76
2022/07/11 08:48:16;;;;;;;1.23;0.50;;;;;;;;;;5010808;28;20069;-76
2022/07/11 08:50:42;;;;;;;2.25;0.60;;;;;;;;;;5021013;28;20028;-75
2022/07/11 08:53:09;;;;;;;2.05;0.70;;;;;;;;;;5029200;28;20029;-79
2022/07/11 08:55:36;;;;;;;2.25;0.70;;;;;;;;;;5013269;28;20030;-78
2022/07/11 08:58:02;;;;;;;1.73;0.70;;;;;;;;;;5011392;28;20018;-78
2022/07/11 09:00:28;;;;;;;1.33;0.50;;;;;;;;;;5023671;28;20073;-78
2022/07/11 09:02:55;;;;;;;2.47;0.65;;;;;;;;;;5031438;28;20029;-77
2022/07/11 09:05:21;;;;;;;1.17;0.60;;;;;;;;;;5025071;28;20026;-78
2022/07/11 09:07:48;;;;;;;5.07;1.85;;;;;;;;;;5028457;28;20041;-75
2022/07/11 09:10:15;;;;;;;1.67;1.10;;;;;;;;;;5031241;28;20030;-76
2022/07/11 09:13:07;;;;;;;1.80;0.70;;;;;;;;;;5031350;28;20487;-78
2022/07/11 09:15:34;;;;;;;1.85;0.90;;;;;;;;;;5014960;28;20048;-75
2022/07/11 09:18:01;;;;;;;3.55;1.30;;;;;;;;;;5031003;28;20022;-77
2022/07/11 09:26:19;;;;;;;1.65;0.70;;;;;;;;;;5019778;28;20547;-77
2022/07/11 09:28:58;;;;;;;1.73;0.90;;;;;;;;;;5021437;28;20038;-76
2022/07/11 09:31:27;;;;;;;1.95;0.52;;;;;;;;;;5011172;28;20029;-77
2022/07/11 09:33:59;;;;;;;2.05;0.85;;;;;;;;;;5015629;28;20037;-78
2022/07/11 09:36:35;;;;;;;0.70;0.50;;;;;;;;;;5029544;28;20565;-76
2022/07/11 09:39:05;;;;;;;1.70;0.45;;;;;;;;;;5023915;28;20034;-78
2022/07/11 09:41:35;;;;;;;3.17;0.80;;;;;;;;;;5023246;28;20048;-83
2022/07/11 09:44:20;;;;;;;2.30;0.65;;;;;;;;;;5013948;28;20040;-83
2022/07/11 09:46:50;;;;;;;2.97;1.40;;;;;;;;;;5011219;28;20137;-81
2022/07/11 09:49:17;;;;;;;1.90;0.60;;;;;;;;;;5020434;28;20033;-83
2022/07/11 09:51:44;;;;;;;0.90;0.50;;;;;;;;;;5029637;28;20112;-76
2022/07/11 09:54:11;;;;;;;3.65;1.05;;;;;;;;;;5028591;28;20025;-78
2022/07/11 09:56:41;;;;;;;2.25;0.60;;;;;;;;;;5029914;28;20125;-79
2022/07/11 09:59:09;;;;;;;0.90;0.60;;;;;;;;;;5031168;28;20105;-79
2022/07/11 10:01:35;;;;;;;1.63;0.77;;;;;;;;;;5021605;28;20393;-78
2022/07/11 10:04:01;;;;;;;2.78;0.70;;;;;;;;;;4993211;28;20034;-77
2022/07/11 10:06:27;;;;;;;1.00;0.60;;;;;;;;;;5011215;28;20042;-81
2022/07/11 10:08:54;;;;;;;4.05;1.80;;;;;;;;;;5011093;28;20389;-82
2022/07/11 10:11:21;;;;;;;0.93;0.65;;;;;;;;;;5012451;28;20083;-77
2022/07/11 10:13:48;;;;;;;2.90;2.25;;;;;;;;;;4998903;28;20452;-80
2022/07/11 10:16:33;;;;;;;1.98;0.95;;;;;;;;;;5018188;28;20025;-82
2022/07/11 10:19:17;;;;;;;2.03;0.80;;;;;;;;;;5030052;28;20029;-81
2022/07/11 10:22:02;;;;;;;8.10;5.43;;;;;;;;;;5021659;28;20054;-78
2022/07/11 10:24:31;;;;;;;1.10;0.60;;;;;;;;;;5019230;28;20037;-81
2022/07/11 10:27:05;;;;;;;1.30;0.50;;;;;;;;;;5027955;28;20038;-81
2022/07/11 10:29:38;;;;;;;3.80;1.17;;;;;;;;;;5013168;28;20036;-85
2022/07/11 10:32:22;;;;;;;26.40;24.02;;;;;;;;;;5009281;28;20029;-83
2022/07/11 10:35:16;;;;;;;32.85;29.88;;;;;;;;;;5026134;28;20041;-80
2022/07/11 10:37:55;;;;;;;3.40;1.20;;;;;;;;;;5018471;28;20493;-81
2022/07/11 10:40:39;;;;;;;2.85;1.20;;;;;;;;;;5014295;28;20104;-84
2022/07/11 10:43:05;;;;;;;2.17;0.70;;;;;;;;;;5021768;28;20370;-80
2022/07/11 10:45:49;;;;;;;2.72;1.30;;;;;;;;;;5030471;28;20033;-79
2022/07/11 10:48:15;;;;;;;1.38;0.90;;;;;;;;;;5023978;28;20066;-78
2022/07/11 10:51:04;;;;;;;2.00;0.80;;;;;;;;;;5003693;28;20041;-80
2022/07/11 10:53:40;;;;;;;1.52;0.80;;;;;;;;;;5016518;28;20030;-80
2022/07/11 10:56:06;;;;;;;2.47;0.90;;;;;;;;;;4995802;28;20117;-81
2022/07/11 10:58:33;;;;;;;1.45;0.73;;;;;;;;;;5014101;28;20018;-85
2022/07/11 11:01:09;;;;;;;4.97;0.90;;;;;;;;;;5000381;28;20029;-77
2022/07/11 11:03:35;;;;;;;4.30;0.95;;;;;;;;;;5004378;28;20395;-78
2022/07/11 11:06:01;;;;;;;2.22;0.60;;;;;;;;;;5021262;28;20099;-82
2022/07/11 11:08:34;;;;;;;1.85;0.60;;;;;;;;;;5025460;28;20515;-82
2022/07/11 11:11:02;;;;;;;3.35;0.90;;;;;;;;;;5016356;28;20034;-80
2022/07/11 11:13:29;;;;;;;1.85;0.88;;;;;;;;;;5013380;28;20497;-78
2022/07/11 11:15:56;;;;;;;1.40;0.90;;;;;;;;;;5013751;28;20026;-78
2022/07/11 11:18:25;;;;;;;0.98;0.60;;;;;;;;;;5012089;28;20389;-79
2022/07/11 11:21:00;;;;;;;2.00;0.70;;;;;;;;;;5013053;28;20425;-78
2022/07/11 11:23:47;;;;;;;2.55;0.70;;;;;;;;;;5022114;28;20029;-80
2022/07/11 11:26:14;;;;;;;2.63;0.80;;;;;;;;;;5005261;28;20040;-79
2022/07/11 11:28:59;;;;;;;2.40;0.60;;;;;;;;;;5001593;28;20030;-77
2022/07/11 11:31:29;;;;;;;2.72;1.05;;;;;;;;;;5021619;28;20037;-82
2022/07/11 11:33:56;;;;;;;4.07;3.50;;;;;;;;;;5015851;28;20032;-80
2022/07/11 11:36:23;;;;;;;3.55;1.30;;;;;;;;;;5012732;28;20101;-79
2022/07/11 11:38:50;;;;;;;2.65;0.50;;;;;;;;;;5018505;28;20042;-81
2022/07/11 11:41:34;;;;;;;4.32;0.80;;;;;;;;;;5012872;28;20041;-81
2022/07/11 11:44:03;;;;;;;2.20;0.70;;;;;;;;;;5016858;28;20096;-80
2022/07/11 11:46:36;;;;;;;3.60;0.90;;;;;;;;;;5013487;28;20038;-77
2022/07/11 11:49:03;;;;;;;5.85;0.95;;;;;;;;;;5020661;28;20021;-80
2022/07/11 11:51:30;;;;;;;1.33;1.00;;;;;;;;;;5032480;28;20053;-75
2022/07/11 11:54:01;;;;;;;1.30;0.50;;;;;;;;;;5032749;28;20427;-81
2022/07/11 11:56:28;;;;;;;1.92;0.50;;;;;;;;;;5030756;28;20037;-82
2022/07/11 11:59:01;;;;;;;1.77;0.68;;;;;;;;;;5023026;28;20484;-80
2022/07/11 12:01:28;;;;;;;5.43;4.85;;;;;;;;;;5023448;28;20088;-79
2022/07/11 12:03:56;;;;;;;1.40;1.23;;;;;;;;;;5020836;28;20030;-79
2022/07/11 12:06:23;;;;;;;2.17;1.60;;;;;;;;;;5019004;28;20370;-81
2022/07/11 12:08:50;;;;;;;2.13;0.88;;;;;;;;;;5013193;28;20041;-77
2022/07/11 12:11:16;;;;;;;2.95;0.60;;;;;;;;;;5022976;28;20026;-79
2022/07/11 12:13:43;;;;;;;1.52;0.55;;;;;;;;;;5014847;28;20041;-81
2022/07/11 12:18:58;;;;;;;2.88;0.65;;;;;;;;;;5017311;28;20788;-79
2022/07/11 12:21:24;;;;;;;3.47;1.25;;;;;;;;;;5011107;28;20141;-83
2022/07/11 12:23:50;;;;;;;4.38;2.42;;;;;;;;;;5011509;28;20030;-82
2022/07/11 12:26:17;;;;;;;6.85;2.05;;;;;;;;;;5011095;28;20025;-81
2022/07/11 12:29:01;;;;;;;6.22;4.35;;;;;;;;;;5012484;28;20033;-83
2022/07/11 12:31:40;;;;;;;4.43;1.70;;;;;;;;;;5015347;28;20038;-80
2022/07/11 12:37:14;;;;;;;1.38;0.55;;;;;;;;;;5015345;28;20056;-81
2022/07/11 12:40:06;;;;;;;2.35;0.50;;;;;;;;;;5003531;28;20043;-77
2022/07/11 12:42:33;;;;;;;3.90;0.60;;;;;;;;;;5016962;28;20112;-78
2022/07/11 12:45:07;;;;;;;2.00;1.10;;;;;;;;;;5020504;28;20040;-78
2022/07/11 12:47:33;;;;;;;1.45;0.50;;;;;;;;;;5016896;28;20045;-79
2022/07/11 12:50:07;;;;;;;1.27;1.08;;;;;;;;;;5027116;28;20025;-79
2022/07/11 12:52:37;;;;;;;1.00;0.60;;;;;;;;;;5020740;28;20401;-78
2022/07/11 12:55:03;;;;;;;1.58;0.50;;;;;;;;;;5017664;28;20166;-82
2022/07/11 12:57:29;;;;;;;1.52;0.73;;;;;;;;;;5022946;28;20105;-81
2022/07/11 12:59:56;;;;;;;1.02;0.88;;;;;;;;;;5017324;28;20482;-78
2022/07/11 13:02:28;;;;;;;0.63;0.50;;;;;;;;;;5024075;28;20037;-77
2022/07/11 13:04:54;;;;;;;4.30;2.00;;;;;;;;;;5017773;28;20031;-79
2022/07/11 13:10:06;;;;;;;1.67;0.60;;;;;;;;;;5030437;28;20388;-82
2022/07/11 13:12:32;;;;;;;1.42;0.75;;;;;;;;;;5029374;28;20025;-81
2022/07/11 13:15:09;;;;;;;1.05;0.50;;;;;;;;;;5029568;28;20061;-81
2022/07/11 13:17:36;;;;;;;2.50;1.08;;;;;;;;;;5029758;28;20026;-80
2022/07/11 13:20:02;;;;;;;3.07;1.63;;;;;;;;;;4984634;28;1291240;-81
2022/07/11 13:22:28;;;;;;;2.55;0.50;;;;;;;;;;5032188;28;20032;-77
2022/07/11 13:24:54;;;;;;;1.60;0.90;;;;;;;;;;5032472;28;20496;-79
2022/07/11 13:27:20;;;;;;;2.08;1.15;;;;;;;;;;5032080;28;20376;-77
2022/07/11 13:29:46;;;;;;;8.18;1.35;;;;;;;;;;5031872;28;20037;-80
2022/07/11 13:32:12;;;;;;;3.47;1.80;;;;;;;;;;5032206;28;20025;-79
2022/07/11 13:34:38;;;;;;;1.67;0.70;;;;;;;;;;5032222;28;20423;-78
2022/07/11 13:37:05;;;;;;;2.42;0.70;;;;;;;;;;5032135;28;20022;-81
2022/07/11 13:39:31;;;;;;;2.13;0.98;;;;;;;;;;5014239;28;20029;-80
2022/07/11 13:41:57;;;;;;;1.52;0.80;;;;;;;;;;5032072;28;20033;-78
2022/07/11 13:44:23;;;;;;;2.28;0.65;;;;;;;;;;5014311;28;20531;-83
2022/07/11 13:46:49;;;;;;;1.20;0.52;;;;;;;;;;5031862;28;20059;-81
2022/07/11 13:49:15;;;;;;;3.10;0.50;;;;;;;;;;5031837;28;20025;-80
2022/07/11 13:51:41;;;;;;;1.75;0.43;;;;;;;;;;5031750;28;20025;-79
2022/07/11 13:54:08;;;;;;;3.60;0.60;;;;;;;;;;5032091;28;20033;-83
2022/07/11 13:56:34;;;;;;;1.15;0.40;;;;;;;;;;5031601;28;20017;-78
2022/07/11 13:59:00;;;;;;;1.92;0.70;;;;;;;;;;5032113;28;20052;-81
2022/07/11 14:01:26;;;;;;;2.40;0.70;;;;;;;;;;5031951;28;20040;-78
2022/07/11 14:03:52;;;;;;;2.50;0.65;;;;;;;;;;5024178;28;20049;-78
2022/07/11 14:06:19;;;;;;;2.13;1.00;;;;;;;;;;5021859;28;20038;-81
2022/07/11 14:08:45;;;;;;;1.65;1.15;;;;;;;;;;5016604;28;20025;-82
2022/07/11 14:11:11;;;;;;;2.72;0.88;;;;;;;;;;5017000;28;20105;-76
2022/07/11 14:13:37;;;;;;;3.15;1.00;;;;;;;;;;5001322;28;20030;-79
2022/07/11 14:16:04;;;;;;;0.90;0.43;;;;;;;;;;5017169;28;20026;-83
2022/07/11 14:18:31;;;;;;;1.65;0.70;;;;;;;;;;5019405;28;20052;-79
2022/07/11 14:20:57;;;;;;;1.35;0.50;;;;;;;;;;5035657;28;20060;-81
2022/07/11 14:23:26;;;;;;;1.10;0.50;;;;;;;;;;5034378;28;20040;-76
2022/07/11 14:25:53;;;;;;;1.02;0.50;;;;;;;;;;5035673;28;20443;-78
2022/07/11 14:28:19;;;;;;;2.63;0.93;;;;;;;;;;5035590;28;20038;-78
2022/07/11 14:30:45;;;;;;;2.47;0.70;;;;;;;;;;5035445;28;20060;-78
2022/07/11 14:33:11;;;;;;;1.35;0.50;;;;;;;;;;5035572;28;20025;-84
2022/07/11 14:35:37;;;;;;;0.95;0.50;;;;;;;;;;5035334;28;20052;-80
2022/07/11 14:38:03;;;;;;;2.28;1.23;;;;;;;;;;5035155;28;20111;-80
2022/07/11 14:40:30;;;;;;;1.15;0.45;;;;;;;;;;5035347;28;20473;-77
2022/07/11 14:42:56;;;;;;;1.63;0.60;;;;;;;;;;5032058;28;20382;-81
2022/07/11 14:45:23;;;;;;;1.42;0.57;;;;;;;;;;5026800;28;20054;-80
2022/07/11 14:47:49;;;;;;;1.38;0.60;;;;;;;;;;5015263;28;20037;-82
2022/07/11 14:50:15;;;;;;;1.27;0.70;;;;;;;;;;5018248;28;20033;-80
2022/07/11 14:52:41;;;;;;;2.03;0.65;;;;;;;;;;5025326;28;20022;-83
2022/07/11 14:55:07;;;;;;;1.48;0.60;;;;;;;;;;5005994;28;20030;-84
2022/07/11 14:57:33;;;;;;;2.15;0.90;;;;;;;;;;5024716;28;20025;-81
2022/07/11 15:00:00;;;;;;;3.45;2.58;;;;;;;;;;5032198;28;20045;-83
2022/07/11 15:05:10;;;;;;;11.80;8.07;;;;;;;;;;5035783;28;20041;-80
2022/07/11 15:13:05;;;;;;;2.15;0.70;;;;;;;;;;5034606;28;20542;-82
2022/07/11 15:15:32;;;;;;;4.03;2.90;;;;;;;;;;5013438;28;20029;-82